logo
Search for airport 
image banner adimage banner adimage banner ad
image banner ad

YJCO - Jericho (Tas)

Located in Jericho, Australia

ICAO - YJCO, IATA -

Data provided by Airmate  

General information

Coordinates: S42°22'5" E147°20'11"
Elevation is 1402 feet MSL.
Magnetic variation is 15° East
View others Airports in Tasmania

Operational data

Special qualification required
Current time UTC:
Current local time:
Weather at : YMHB - Hobart ( 54 km )
TAF: TAF AMD YMHB 151811Z 1518/1618 17012KT 9999 -SHRA FEW015 BKN030 FM160100 16016KT 9999 NSW SCT030 BECMG 1607/1608 18014KT 9999 -SHRA SCT015 BKN020 BECMG 1614/1615 18016KT 9999 -SHRA BKN025 TEMPO 1608/1615 3000 SHRA BKN008
View NOTAMs / SUP AIP / TFR affecting this airport [VIEW]
Communications frequencies: [VIEW]

Runways:

RWY identifierQFULength (ft)Width (ft)SurfaceLDA (ft)
0130°218054GRAS
19210°218054GRAS

Airport contact information

Address: Jericho Australia

Satellite view of YJCO